createdAt,value
2023-01-03T00:01:36.849Z,70.83
2023-01-03T00:04:04.370Z,93.70
2023-01-03T00:06:37.052Z,177.27
2023-01-03T00:09:07.090Z,148.13
2023-01-03T00:11:53.242Z,154.33
2023-01-03T00:14:23.585Z,90.80
2023-01-03T00:16:52.764Z,113.43
2023-01-03T00:19:21.153Z,83.43
2023-01-03T00:21:48.319Z,77.83
2023-01-03T00:24:16.374Z,180.77
2023-01-03T00:26:43.590Z,108.10
2023-01-03T00:29:12.153Z,135.17
2023-01-03T00:31:40.259Z,300.00
2023-01-03T00:34:07.873Z,86.53
2023-01-03T00:36:36.644Z,76.27
2023-01-03T00:39:05.395Z,108.73
2023-01-03T00:41:32.732Z,87.93
2023-01-03T00:43:59.999Z,67.20
2023-01-03T00:46:27.164Z,85.60
2023-01-03T00:48:54.184Z,87.90
2023-01-03T00:51:24.236Z,69.13
2023-01-03T00:53:55.997Z,64.90
2023-01-03T00:56:25.597Z,63.33
2023-01-03T00:58:53.889Z,67.47
2023-01-03T01:01:24.078Z,63.50
2023-01-03T01:03:56.188Z,62.23
2023-01-03T01:06:26.031Z,75.83
2023-01-03T01:08:55.632Z,72.50
2023-01-03T01:11:24.464Z,58.20
2023-01-03T01:13:52.460Z,59.30
2023-01-03T01:16:25.980Z,61.73
2023-01-03T01:18:54.197Z,60.87
2023-01-03T01:21:29.989Z,68.90
2023-01-03T01:23:59.370Z,53.13
2023-01-03T01:26:26.982Z,67.00
2023-01-03T01:28:55.156Z,51.63
2023-01-03T01:31:24.661Z,45.80
2023-01-03T01:33:53.473Z,52.73
2023-01-03T01:36:31.830Z,46.33
2023-01-03T01:39:09.969Z,48.77
2023-01-03T01:41:56.432Z,46.40
2023-01-03T01:44:54.547Z,47.57
2023-01-03T01:47:36.457Z,57.97
2023-01-03T01:50:15.536Z,62.03
2023-01-03T01:53:15.910Z,66.30
2023-01-03T01:55:58.716Z,61.70
2023-01-03T01:58:29.103Z,66.00
2023-01-03T02:00:56.311Z,98.50
2023-01-03T02:03:23.452Z,65.83
2023-01-03T02:05:53.852Z,65.87
2023-01-03T02:08:21.662Z,59.40
2023-01-03T02:11:13.125Z,65.50
2023-01-03T02:14:04.919Z,64.47
2023-01-03T02:16:38.112Z,68.33
2023-01-03T02:19:07.772Z,63.43
2023-01-03T02:22:09.940Z,68.20
2023-01-03T02:24:49.409Z,41.80
2023-01-03T02:27:27.871Z,41.20
2023-01-03T02:30:35.114Z,47.30
2023-01-03T02:33:05.119Z,49.40
2023-01-03T02:35:36.577Z,47.00
2023-01-03T02:38:27.123Z,50.00
2023-01-03T02:41:37.914Z,42.43
2023-01-03T02:44:36.375Z,36.63
2023-01-03T02:47:14.086Z,35.70
2023-01-03T02:49:51.385Z,45.53
2023-01-03T02:52:23.090Z,38.27
2023-01-03T02:55:21.642Z,36.53
2023-01-03T02:58:03.002Z,36.47
2023-01-03T03:00:32.776Z,37.63
2023-01-03T03:03:09.802Z,40.33
2023-01-03T03:06:06.424Z,39.37
2023-01-03T03:08:33.684Z,43.53
2023-01-03T03:11:19.401Z,37.43
2023-01-03T03:13:51.816Z,33.90
2023-01-03T03:16:44.943Z,35.03
2023-01-03T03:19:42.859Z,32.07
2023-01-03T03:23:05.451Z,29.93
2023-01-03T03:25:59.710Z,35.67
2023-01-03T03:28:37.517Z,34.77
2023-01-03T03:31:36.908Z,35.60
2023-01-03T03:34:08.999Z,33.27
2023-01-03T03:36:46.329Z,37.17
2023-01-03T03:39:33.985Z,40.63
2023-01-03T03:42:47.270Z,38.23
2023-01-03T03:45:33.663Z,33.00
2023-01-03T03:48:13.895Z,35.13
2023-01-03T03:50:43.581Z,37.67
2023-01-03T03:53:12.511Z,49.70
2023-01-03T03:55:48.567Z,46.70
2023-01-03T03:58:23.371Z,50.43
2023-01-03T04:00:52.252Z,44.03
2023-01-03T04:03:21.985Z,71.33
2023-01-03T04:05:57.665Z,53.13
2023-01-03T04:08:24.837Z,51.33
2023-01-03T04:10:51.913Z,53.73
2023-01-03T04:13:18.895Z,64.10
2023-01-03T04:15:45.817Z,59.23
2023-01-03T04:18:13.983Z,88.03
2023-01-03T04:20:40.937Z,54.87
2023-01-03T04:23:07.859Z,49.57
2023-01-03T04:25:34.949Z,81.47
2023-01-03T04:28:01.905Z,119.00
2023-01-03T04:30:28.878Z,88.23
2023-01-03T04:32:56.547Z,89.57
2023-01-03T04:35:23.601Z,68.73
2023-01-03T04:37:50.547Z,98.57
2023-01-03T04:40:17.571Z,90.00
2023-01-03T04:43:03.049Z,57.73
2023-01-03T04:45:30.096Z,52.83
2023-01-03T04:47:57.115Z,50.07
2023-01-03T04:50:24.095Z,54.93
2023-01-03T04:52:51.032Z,115.23
2023-01-03T04:55:18.086Z,55.40
2023-01-03T04:57:45.049Z,45.47
2023-01-03T05:00:13.003Z,77.37
2023-01-03T05:02:40.271Z,97.00
2023-01-03T05:05:08.025Z,89.03
2023-01-03T05:07:35.111Z,51.53
2023-01-03T05:10:02.561Z,49.73
2023-01-03T05:12:29.554Z,97.00
2023-01-03T05:14:56.598Z,56.23
2023-01-03T05:17:23.575Z,69.83
2023-01-03T05:20:22.829Z,61.93
2023-01-03T05:23:08.513Z,48.43
2023-01-03T05:25:51.507Z,63.43
2023-01-03T05:28:20.656Z,43.07
2023-01-03T05:30:47.759Z,57.30
2023-01-03T05:33:14.863Z,47.60
2023-01-03T05:35:45.159Z,57.07
2023-01-03T05:38:12.147Z,56.67
2023-01-03T05:40:41.473Z,53.27
2023-01-03T05:43:09.145Z,59.47
2023-01-03T05:45:37.176Z,55.30
2023-01-03T05:48:04.660Z,45.73
2023-01-03T05:50:32.787Z,54.27
2023-01-03T05:52:59.833Z,43.60
2023-01-03T05:55:26.953Z,43.33
2023-01-03T05:57:53.990Z,42.47
2023-01-03T06:00:21.134Z,43.97
2023-01-03T06:02:48.309Z,42.00
2023-01-03T06:05:15.387Z,45.10
2023-01-03T06:07:42.430Z,58.20
2023-01-03T06:10:10.078Z,52.47
2023-01-03T06:12:37.368Z,54.47
2023-01-03T06:15:05.131Z,50.77
2023-01-03T06:17:50.762Z,41.50
2023-01-03T06:20:17.879Z,48.13
2023-01-03T06:22:44.841Z,52.60
2023-01-03T06:25:12.630Z,53.60
2023-01-03T06:27:39.640Z,56.33
2023-01-03T06:30:07.214Z,46.17
2023-01-03T06:32:34.239Z,48.27
2023-01-03T06:35:01.178Z,50.37
2023-01-03T06:37:28.158Z,54.67
2023-01-03T06:39:55.124Z,53.20
2023-01-03T06:42:40.131Z,50.37
2023-01-03T06:45:26.291Z,75.07
2023-01-03T06:48:11.809Z,39.33
2023-01-03T06:50:59.026Z,44.37
2023-01-03T06:53:29.143Z,32.80
2023-01-03T06:55:57.439Z,38.87
2023-01-03T06:58:24.907Z,33.37
2023-01-03T07:00:52.910Z,34.93
2023-01-03T07:03:20.004Z,41.93
2023-01-03T07:05:46.945Z,176.30
2023-01-03T07:08:13.883Z,80.73
2023-01-03T07:10:41.322Z,63.90
2023-01-03T07:13:26.810Z,47.80
2023-01-03T07:15:53.934Z,97.03
2023-01-03T07:18:21.231Z,41.17
2023-01-03T07:20:48.265Z,41.37
2023-01-03T07:23:15.417Z,42.90
2023-01-03T07:25:42.556Z,34.87
2023-01-03T07:28:14.444Z,42.17
2023-01-03T07:30:43.922Z,31.10
2023-01-03T07:33:13.359Z,37.83
2023-01-03T07:35:40.506Z,40.20
2023-01-03T07:38:08.173Z,28.40
2023-01-03T07:40:35.161Z,30.00
2023-01-03T07:43:20.663Z,43.63
2023-01-03T07:45:47.917Z,29.87
2023-01-03T07:48:15.400Z,25.40
2023-01-03T07:50:42.767Z,35.60
2023-01-03T07:53:16.387Z,26.00
2023-01-03T07:55:46.951Z,35.70
2023-01-03T07:58:14.092Z,28.23
2023-01-03T08:00:42.105Z,27.77
2023-01-03T08:03:11.604Z,34.10
2023-01-03T08:05:39.306Z,30.53
2023-01-03T08:08:06.659Z,33.60
2023-01-03T08:11:11.851Z,39.87
2023-01-03T08:13:39.119Z,34.60
2023-01-03T08:16:08.557Z,33.80
2023-01-03T08:18:35.638Z,40.07
2023-01-03T08:21:02.642Z,38.37
2023-01-03T08:23:30.128Z,35.87
2023-01-03T08:26:17.125Z,50.40
2023-01-03T08:28:45.291Z,35.27
2023-01-03T08:31:17.427Z,30.00
2023-01-03T08:33:54.902Z,28.13
2023-01-03T08:36:25.224Z,27.50
2023-01-03T08:38:54.983Z,28.20
2023-01-03T08:41:26.247Z,27.27
2023-01-03T08:43:54.619Z,53.53
2023-01-03T08:46:22.141Z,24.83
2023-01-03T08:48:49.425Z,22.93
2023-01-03T08:51:16.432Z,27.17
2023-01-03T08:53:43.416Z,23.40
2023-01-03T08:56:10.409Z,29.97
2023-01-03T08:58:37.522Z,25.37
2023-01-03T09:01:06.277Z,29.23
2023-01-03T09:03:33.527Z,25.67
2023-01-03T09:06:02.108Z,25.23
2023-01-03T09:08:33.411Z,28.13
2023-01-03T09:11:05.565Z,28.47
2023-01-03T09:13:32.818Z,22.37
2023-01-03T09:16:03.509Z,22.80
2023-01-03T09:18:30.666Z,26.07
2023-01-03T09:20:57.849Z,25.10
2023-01-03T09:23:24.851Z,27.50
2023-01-03T09:25:51.961Z,28.43
2023-01-03T09:28:19.016Z,25.23
2023-01-03T09:30:46.006Z,30.37
2023-01-03T09:33:13.080Z,23.47
2023-01-03T09:35:40.023Z,22.87
2023-01-03T09:38:07.368Z,24.00
2023-01-03T09:40:40.122Z,28.37
2023-01-03T09:43:18.579Z,24.00
2023-01-03T09:45:58.264Z,19.37
2023-01-03T09:48:38.151Z,25.27
2023-01-03T09:51:30.053Z,24.53
2023-01-03T09:54:16.605Z,19.63
2023-01-03T09:57:02.326Z,22.90
2023-01-03T09:59:54.236Z,22.53
2023-01-03T10:02:55.187Z,18.97
2023-01-03T10:05:31.344Z,19.70
2023-01-03T10:08:19.428Z,20.27
2023-01-03T10:11:23.453Z,20.67
2023-01-03T10:14:08.613Z,22.97
2023-01-03T10:16:42.216Z,21.40
2023-01-03T10:19:28.082Z,17.33
2023-01-03T10:22:03.824Z,19.30
2023-01-03T10:24:32.699Z,19.73
2023-01-03T10:27:18.194Z,19.27
2023-01-03T10:29:46.714Z,20.40
2023-01-03T10:32:28.617Z,21.63
2023-01-03T10:35:15.483Z,21.33
2023-01-03T10:37:42.856Z,19.43
2023-01-03T10:40:11.090Z,18.63
2023-01-03T10:42:40.029Z,17.90
2023-01-03T10:45:18.846Z,19.23
2023-01-03T10:47:59.737Z,18.70
2023-01-03T10:50:27.539Z,18.77
2023-01-03T10:53:16.327Z,15.77
2023-01-03T10:55:49.775Z,17.23
2023-01-03T10:58:34.048Z,18.23
2023-01-03T11:01:18.633Z,17.13
2023-01-03T11:04:05.763Z,17.80
2023-01-03T11:06:34.029Z,18.80
2023-01-03T11:09:05.020Z,20.20
2023-01-03T11:11:40.442Z,18.90
2023-01-03T11:14:10.244Z,18.70
2023-01-03T11:16:37.521Z,18.00
2023-01-03T11:19:06.895Z,19.97
2023-01-03T11:21:47.953Z,17.30
2023-01-03T11:24:28.353Z,18.50
2023-01-03T11:27:16.821Z,16.17
2023-01-03T11:30:04.055Z,21.17
2023-01-03T11:32:54.964Z,20.17
2023-01-03T11:35:40.191Z,20.67
2023-01-03T11:38:25.707Z,17.30
2023-01-03T11:41:10.075Z,19.80
2023-01-03T11:44:22.190Z,19.03
2023-01-03T11:47:27.025Z,23.60
2023-01-03T11:50:15.309Z,20.50
2023-01-03T11:53:05.454Z,18.83
2023-01-03T11:55:59.067Z,20.17
2023-01-03T11:58:43.966Z,22.83
2023-01-03T12:01:39.477Z,20.73
2023-01-03T12:04:29.148Z,18.03
2023-01-03T12:07:48.162Z,20.37
2023-01-03T12:11:00.473Z,23.57
2023-01-03T12:13:29.932Z,24.07
2023-01-03T12:16:19.277Z,24.80
2023-01-03T12:18:59.073Z,25.47
2023-01-03T12:21:43.621Z,28.57
2023-01-03T12:24:28.996Z,31.37
2023-01-03T12:27:29.878Z,28.10
2023-01-03T12:30:06.750Z,25.87
2023-01-03T12:33:15.025Z,30.93
2023-01-03T12:36:23.483Z,27.33
2023-01-03T12:39:02.650Z,26.77
2023-01-03T12:41:42.348Z,21.97
2023-01-03T12:44:15.292Z,28.00
2023-01-03T12:46:50.664Z,23.67
2023-01-03T12:49:32.143Z,24.57
2023-01-03T12:51:59.533Z,24.80
2023-01-03T12:54:53.377Z,27.10
2023-01-03T12:57:39.155Z,29.73
2023-01-03T13:00:20.841Z,26.47
2023-01-03T13:02:57.752Z,29.57
2023-01-03T13:05:31.635Z,23.40
2023-01-03T13:08:10.171Z,31.83
2023-01-03T13:10:40.298Z,31.37
2023-01-03T13:13:10.571Z,35.93
2023-01-03T13:15:37.937Z,33.23
2023-01-03T13:18:18.617Z,31.53
2023-01-03T13:20:49.986Z,35.90
2023-01-03T13:23:41.505Z,36.07
2023-01-03T13:26:19.380Z,34.57
2023-01-03T13:28:46.469Z,34.67
2023-01-03T13:31:19.432Z,29.87
2023-01-03T13:33:52.576Z,30.43
2023-01-03T13:36:20.119Z,29.50
2023-01-03T13:38:47.198Z,35.40
2023-01-03T13:41:35.269Z,31.67
2023-01-03T13:44:23.882Z,31.30
2023-01-03T13:46:52.172Z,33.27
2023-01-03T13:49:25.740Z,32.77
2023-01-03T13:51:53.898Z,28.67
2023-01-03T13:54:20.806Z,35.97
2023-01-03T13:56:52.800Z,32.03
2023-01-03T13:59:31.227Z,32.27
2023-01-03T14:02:10.349Z,32.47
2023-01-03T14:05:15.362Z,28.27
2023-01-03T14:08:17.063Z,29.63
2023-01-03T14:10:55.989Z,33.67
2023-01-03T14:13:44.148Z,30.43
2023-01-03T14:16:23.497Z,34.80
2023-01-03T14:19:07.090Z,33.30
2023-01-03T14:22:14.253Z,34.77
2023-01-03T14:24:57.671Z,35.83
2023-01-03T14:27:32.318Z,33.77
2023-01-03T14:30:00.445Z,36.37
2023-01-03T14:32:35.121Z,30.30
2023-01-03T14:35:03.163Z,35.70
2023-01-03T14:37:33.098Z,35.13
2023-01-03T14:40:03.317Z,39.23
2023-01-03T14:42:30.382Z,35.83
2023-01-03T14:44:58.416Z,43.53
2023-01-03T14:47:32.362Z,37.67
2023-01-03T14:49:59.818Z,33.30
2023-01-03T14:52:34.268Z,34.40
2023-01-03T14:55:07.246Z,31.50
2023-01-03T14:57:38.958Z,36.53
2023-01-03T15:00:07.841Z,37.13
2023-01-03T15:02:39.084Z,44.37
2023-01-03T15:05:24.588Z,36.93
2023-01-03T15:07:51.906Z,41.00
2023-01-03T15:10:28.921Z,43.53
2023-01-03T15:13:00.719Z,40.47
2023-01-03T15:15:38.400Z,40.37
2023-01-03T15:18:09.705Z,48.97
2023-01-03T15:20:45.228Z,47.53
2023-01-03T15:23:33.623Z,54.13
2023-01-03T15:26:00.620Z,48.23
2023-01-03T15:28:30.731Z,47.90
2023-01-03T15:31:15.099Z,39.93
2023-01-03T15:33:42.906Z,46.60
2023-01-03T15:36:19.179Z,51.30
2023-01-03T15:38:48.867Z,56.20
2023-01-03T15:41:42.422Z,56.73
2023-01-03T15:44:10.811Z,59.13
2023-01-03T15:46:42.288Z,49.40
2023-01-03T15:49:13.055Z,51.13
2023-01-03T15:51:40.059Z,56.83
2023-01-03T15:54:13.708Z,64.40
2023-01-03T15:57:02.669Z,64.37
2023-01-03T15:59:42.993Z,57.60
2023-01-03T16:02:19.121Z,69.27
2023-01-03T16:04:47.665Z,58.23
2023-01-03T16:07:14.977Z,63.03
2023-01-03T16:09:42.098Z,60.10
2023-01-03T16:12:36.077Z,60.63
2023-01-03T16:15:04.024Z,57.97
2023-01-03T16:17:32.012Z,51.27
2023-01-03T16:20:00.445Z,54.43
2023-01-03T16:22:34.929Z,56.73
2023-01-03T16:25:02.812Z,52.40
2023-01-03T16:27:29.919Z,62.27
2023-01-03T16:29:56.952Z,55.73
2023-01-03T16:32:30.038Z,56.33
2023-01-03T16:35:19.603Z,56.90
2023-01-03T16:37:46.792Z,54.13
2023-01-03T16:40:19.286Z,51.17
2023-01-03T16:42:46.849Z,54.70
2023-01-03T16:45:14.246Z,55.20
2023-01-03T16:47:43.653Z,55.07
2023-01-03T16:50:13.770Z,50.20
2023-01-03T16:52:45.146Z,50.30
2023-01-03T16:55:27.593Z,44.80
2023-01-03T16:57:55.493Z,54.70
2023-01-03T17:00:29.628Z,57.07
2023-01-03T17:03:00.225Z,52.30
2023-01-03T17:05:29.400Z,58.77
2023-01-03T17:08:06.728Z,54.70
2023-01-03T17:10:38.108Z,51.90
2023-01-03T17:13:12.150Z,58.77
2023-01-03T17:15:40.607Z,49.30
2023-01-03T17:18:17.887Z,52.03
2023-01-03T17:20:45.020Z,49.37
2023-01-03T17:23:12.100Z,41.97
2023-01-03T17:25:40.252Z,49.77
2023-01-03T17:28:10.342Z,58.93
2023-01-03T17:30:38.202Z,49.77
2023-01-03T17:33:05.238Z,49.40
2023-01-03T17:35:32.636Z,46.70
2023-01-03T17:38:27.456Z,49.97
2023-01-03T17:40:49.227Z,40.87
2023-01-03T17:43:22.341Z,43.03
2023-01-03T17:46:10.996Z,41.27
2023-01-03T17:48:56.849Z,44.57
2023-01-03T17:51:23.995Z,44.60
2023-01-03T17:53:51.826Z,49.47
2023-01-03T17:56:20.192Z,46.43
2023-01-03T17:58:55.935Z,47.90
2023-01-03T18:01:23.932Z,47.23
2023-01-03T18:03:51.106Z,45.90
2023-01-03T18:06:22.370Z,42.30
2023-01-03T18:08:50.440Z,40.07
2023-01-03T18:11:20.159Z,45.37
2023-01-03T18:13:48.609Z,53.60
2023-01-03T18:16:19.214Z,58.73
2023-01-03T18:18:46.607Z,47.53
2023-01-03T18:21:22.782Z,50.07
2023-01-03T18:24:04.337Z,52.47
2023-01-03T18:26:38.333Z,50.20
2023-01-03T18:29:06.229Z,47.70
2023-01-03T18:31:33.505Z,48.50
2023-01-03T18:34:04.474Z,50.60
2023-01-03T18:36:44.866Z,44.87
2023-01-03T18:39:19.146Z,42.70
2023-01-03T18:41:46.225Z,44.33
2023-01-03T18:44:20.624Z,46.47
2023-01-03T18:46:47.912Z,51.23
2023-01-03T18:49:15.026Z,47.80
2023-01-03T18:51:42.312Z,50.77
2023-01-03T18:54:16.504Z,45.43
2023-01-03T18:56:44.266Z,50.17
2023-01-03T18:59:24.068Z,47.33
2023-01-03T19:01:51.406Z,45.57
2023-01-03T19:04:18.638Z,50.63
2023-01-03T19:06:49.447Z,46.47
2023-01-03T19:09:24.263Z,47.00
2023-01-03T19:11:52.963Z,45.83
2023-01-03T19:14:20.338Z,51.17
2023-01-03T19:16:47.381Z,50.97
2023-01-03T19:19:14.393Z,57.93
2023-01-03T19:21:44.887Z,54.13
2023-01-03T19:24:39.290Z,49.27
2023-01-03T19:27:16.747Z,52.93
2023-01-03T19:29:44.372Z,52.27
2023-01-03T19:32:19.155Z,51.00
2023-01-03T19:34:46.122Z,52.07
2023-01-03T19:37:13.220Z,58.93
2023-01-03T19:39:40.561Z,57.67
2023-01-03T19:42:32.313Z,59.67
2023-01-03T19:45:01.089Z,51.00
2023-01-03T19:47:28.294Z,60.20
2023-01-03T19:50:14.874Z,53.93
2023-01-03T19:52:41.828Z,58.03
2023-01-03T19:55:11.044Z,55.27
2023-01-03T19:57:41.620Z,53.37
2023-01-03T20:00:37.138Z,58.33
2023-01-03T20:03:07.355Z,46.07
2023-01-03T20:05:35.718Z,57.83
2023-01-03T20:08:11.529Z,50.80
2023-01-03T20:10:40.849Z,50.67
2023-01-03T20:13:16.421Z,56.43
2023-01-03T20:15:44.412Z,50.27
2023-01-03T20:18:34.164Z,52.80
2023-01-03T20:21:22.593Z,50.37
2023-01-03T20:23:56.265Z,59.87
2023-01-03T20:26:28.870Z,50.83
2023-01-03T20:28:57.490Z,43.40
2023-01-03T20:31:25.301Z,54.70
2023-01-03T20:33:52.458Z,47.80
2023-01-03T20:36:25.554Z,60.20
2023-01-03T20:38:55.726Z,52.70
2023-01-03T20:41:36.538Z,58.30
2023-01-03T20:44:07.340Z,46.87
2023-01-03T20:46:34.715Z,50.73
2023-01-03T20:49:03.545Z,49.27
2023-01-03T20:51:30.942Z,54.70
2023-01-03T20:53:58.395Z,45.43
2023-01-03T20:56:27.109Z,43.50
2023-01-03T20:58:54.118Z,43.10
2023-01-03T21:01:21.176Z,48.30
2023-01-03T21:03:48.453Z,48.03
2023-01-03T21:06:21.114Z,44.50
2023-01-03T21:08:54.294Z,44.10
2023-01-03T21:11:27.403Z,45.37
2023-01-03T21:13:55.305Z,47.57
2023-01-03T21:16:25.370Z,47.80
2023-01-03T21:18:52.428Z,42.57
2023-01-03T21:21:21.161Z,52.30
2023-01-03T21:23:48.808Z,47.40
2023-01-03T21:26:15.915Z,50.33
2023-01-03T21:28:42.878Z,45.00
2023-01-03T21:31:17.738Z,45.87
2023-01-03T21:33:45.095Z,48.37
2023-01-03T21:36:23.445Z,45.10
2023-01-03T21:38:51.274Z,48.03
2023-01-03T21:41:20.348Z,53.50
2023-01-03T21:43:47.576Z,45.90
2023-01-03T21:46:19.383Z,44.40
2023-01-03T21:48:46.710Z,46.93
2023-01-03T21:51:15.490Z,48.77
2023-01-03T21:53:45.946Z,46.57
2023-01-03T21:56:19.970Z,53.13
2023-01-03T21:58:46.941Z,50.43
2023-01-03T22:01:16.509Z,56.67
2023-01-03T22:04:02.167Z,47.10
2023-01-03T22:06:29.575Z,49.87
2023-01-03T22:08:56.826Z,49.43
2023-01-03T22:11:24.969Z,53.60
2023-01-03T22:13:54.697Z,51.70
2023-01-03T22:16:22.047Z,51.50
2023-01-03T22:18:49.102Z,54.70
2023-01-03T22:21:16.338Z,48.30
2023-01-03T22:23:43.408Z,56.63
2023-01-03T22:26:15.617Z,57.03
2023-01-03T22:28:44.657Z,56.63
2023-01-03T22:31:16.913Z,51.73
2023-01-03T22:33:45.594Z,52.83
2023-01-03T22:36:13.685Z,49.83
2023-01-03T22:38:41.843Z,53.17
2023-01-03T22:41:16.393Z,56.10
2023-01-03T22:43:44.755Z,56.80
2023-01-03T22:46:14.421Z,58.67
2023-01-03T22:48:42.574Z,58.90
2023-01-03T22:51:12.380Z,65.03
2023-01-03T22:53:41.439Z,64.43
2023-01-03T22:56:10.983Z,63.97
2023-01-03T22:58:38.599Z,56.43
2023-01-03T23:01:15.768Z,54.53
2023-01-03T23:03:44.257Z,56.27
2023-01-03T23:06:16.455Z,55.20
2023-01-03T23:08:43.570Z,63.77
2023-01-03T23:11:35.126Z,58.20
2023-01-03T23:14:22.144Z,58.07
2023-01-03T23:16:51.149Z,60.20
2023-01-03T23:19:20.985Z,67.77
2023-01-03T23:21:48.822Z,58.40
2023-01-03T23:24:22.451Z,64.13
2023-01-03T23:26:50.806Z,59.60
2023-01-03T23:29:18.009Z,64.67
2023-01-03T23:31:45.512Z,65.93
2023-01-03T23:34:12.992Z,62.17
2023-01-03T23:36:43.412Z,63.43
2023-01-03T23:39:16.267Z,69.70
2023-01-03T23:41:43.809Z,66.63
2023-01-03T23:44:11.275Z,63.40
2023-01-03T23:46:38.560Z,59.57
2023-01-03T23:49:05.664Z,70.53
2023-01-03T23:51:32.630Z,70.30
2023-01-03T23:53:59.696Z,59.60
2023-01-03T23:56:26.713Z,59.23
2023-01-03T23:58:53.806Z,54.33
